Marianna, FL

2:49 PM CST on February 21, 2018 (GMT -0600)
Marianna Municipal | | Change Station

Elev 108 ft 30.84 °N, 85.18 °W | Updated 56 minutes ago

Mostly Cloudy
Mostly Cloudy
82 °F
Feels Like 83 °F
N
13
Wind Variable Wind from South
Gusts 16 mph

Today
High -- | Low -- °F
--% Chance of Precip.
Yesterday
High -- | Low -- °F
Precip. -- in
Pressure 30.30 in
Visibility 10.0 miles
Clouds Few 4300 ft
Few 5000 ft
Mostly Cloudy 6500 ft
Heat Index 83 °F
Dew Point 63 °F
Humidity 52%
Rainfall 0.00 in
Snow Depth Not available.
6:15 AM 5:33 PM
Waxing Crescent, 34% visible
METAR KMAI 211953Z AUTO 18011G14KT 10SM FEW043 FEW050 BKN065 28/17 A3030 RMK AO2 SLP258 T02780172
Pressure 30.30 in
Visibility 10.0 miles
Clouds Few 4300 ft
Few 5000 ft
Mostly Cloudy 6500 ft
Heat Index 83 °F
Dew Point 63 °F
Humidity 52%
Rainfall 0.00 in
Snow Depth Not available.
6:15 AM 5:33 PM
Waxing Crescent, 34% visible
METAR KMAI 211953Z AUTO 18011G14KT 10SM FEW043 FEW050 BKN065 28/17 A3030 RMK AO2 SLP258 T02780172

Get Severe Weather Alerts

Thanks for signing up!

Be on the lookout for a verification email in your inbox.

You'll start receiving the daily forecast at 6 AM.

×

10-Day Weather Forecast

Almanac

Astronomy

Feb. 21, 2018 Rise Set
Actual Time
Civil Twilight
Nautical Twilight
Astronomical Twilight
Moon
Length of Visible Light
Length of Day
Tomorrow will be .
, % of the Moon is Illuminated

Today's Extremes

State Highs State Lows

Community

WunderPhotos

Category 6

Welcome to Category 6. This is the collective home for Weather Underground's featured writeups by Dr. Jeff Masters (right), Bob Henson (left), Chris Burt, and other regular contributors.

Nearby

Air Quality

  Air Quality AQ Index Pollutant
Not available.

Snow Depth

Station Depth Elevation

Earthquake Activity

City Distance Mag. Time & Date
Minimum magnitude displayed is 2.5.

Coastal Water Temperatures

Place Temperature

Stations

Nearby Weather Stations

Station Location Temp. Windchill Dew Point Humidity Wind Precip. Elev Updated Type
                   

Watches & Warnings

There are currently no watches in effect.